Time;durP1;ratioP1;P1;durP2;ratioP2;P2;SDS_P1;SDS_P2;PMS_P1;PMS_P2;Temp;Humidity;BMP_temperature;BMP_pressure;BME280_temperature;BME280_humidity;BME280_pressure;Samples;Min_cycle;Max_cycle;Signal;HPM_P1;HPM_P2
2023/08/10 00:00:16;;;;;;;13.40;9.57;;;21.30;77.20;;;;;;5063444;28;43620;-69
2023/08/10 00:02:45;;;;;;;14.97;9.83;;;21.30;77.20;;;;;;5065273;28;43502;-70
2023/08/10 00:05:13;;;;;;;13.17;9.90;;;21.20;77.30;;;;;;5060696;28;43430;-70
2023/08/10 00:07:42;;;;;;;12.33;9.53;;;21.20;77.50;;;;;;5070258;28;43332;-70
2023/08/10 00:10:11;;;;;;;15.07;10.10;;;21.20;77.50;;;;;;5061811;28;43596;-70
2023/08/10 00:12:39;;;;;;;15.07;10.27;;;21.20;77.70;;;;;;5061980;28;44662;-71
2023/08/10 00:15:07;;;;;;;14.90;9.70;;;21.20;77.80;;;;;;5062216;28;43498;-70
2023/08/10 00:17:35;;;;;;;15.87;10.60;;;21.10;77.80;;;;;;5063717;28;43759;-70
2023/08/10 00:20:07;;;;;;;13.80;10.47;;;21.10;78.30;;;;;;5062389;28;45707;-70
2023/08/10 00:22:35;;;;;;;15.17;10.60;;;21.20;78.20;;;;;;5070499;28;43508;-71
2023/08/10 00:25:05;;;;;;;17.03;10.47;;;21.30;77.50;;;;;;5065001;28;44075;-71
2023/08/10 00:27:35;;;;;;;16.10;10.93;;;21.50;76.90;;;;;;5078686;28;43433;-70
2023/08/10 00:30:03;;;;;;;15.67;10.37;;;21.70;76.30;;;;;;5061702;28;43619;-69
2023/08/10 00:32:31;;;;;;;14.27;10.30;;;21.90;75.70;;;;;;5064187;28;43471;-70
2023/08/10 00:34:59;;;;;;;14.27;10.70;;;22.20;74.90;;;;;;5067792;28;44060;-70
2023/08/10 00:37:27;;;;;;;16.40;10.60;;;22.40;74.10;;;;;;5074753;28;44157;-70
2023/08/10 00:39:55;;;;;;;16.03;10.17;;;22.60;73.40;;;;;;5067931;28;43619;-70
2023/08/10 00:42:25;;;;;;;14.80;10.47;;;22.70;72.80;;;;;;5065493;28;45146;-69
2023/08/10 00:44:54;;;;;;;12.90;10.23;;;22.90;72.50;;;;;;5064063;28;43454;-70
2023/08/10 00:47:22;;;;;;;15.10;10.83;;;22.90;72.00;;;;;;5065611;28;43427;-70
2023/08/10 00:49:50;;;;;;;14.50;10.33;;;23.00;71.70;;;;;;5070911;28;43627;-69
2023/08/10 00:52:18;;;;;;;15.80;10.80;;;23.00;71.60;;;;;;5068515;28;43388;-69
2023/08/10 00:54:46;;;;;;;15.17;10.70;;;22.90;72.70;;;;;;5068330;28;43411;-70
2023/08/10 00:57:14;;;;;;;16.17;10.63;;;22.70;72.40;;;;;;5061142;28;43582;-69
2023/08/10 00:59:43;;;;;;;17.50;11.10;;;22.50;73.80;;;;;;5066644;28;43918;-70
2023/08/10 01:02:11;;;;;;;15.47;10.97;;;22.40;73.50;;;;;;5067391;28;44236;-70
2023/08/10 01:04:39;;;;;;;14.83;10.13;;;22.30;73.80;;;;;;5071903;28;44054;-69
2023/08/10 01:07:12;;;;;;;15.43;11.13;;;22.20;74.10;;;;;;5076554;28;43487;-72
2023/08/10 01:09:44;;;;;;;14.93;10.83;;;22.10;74.60;;;;;;5069349;28;43596;-69
2023/08/10 01:12:17;;;;;;;16.07;10.97;;;22.00;75.10;;;;;;5065525;28;43457;-70
2023/08/10 01:14:50;;;;;;;15.00;10.33;;;21.90;75.20;;;;;;5061588;28;43461;-70
2023/08/10 01:17:20;;;;;;;13.27;10.17;;;21.80;75.40;;;;;;5064977;28;43656;-71
2023/08/10 01:19:48;;;;;;;14.30;10.97;;;21.80;75.60;;;;;;5068048;28;46302;-72
2023/08/10 01:22:21;;;;;;;16.40;10.63;;;21.70;76.00;;;;;;5065671;28;43984;-68
2023/08/10 01:24:58;;;;;;;14.70;11.00;;;21.60;76.10;;;;;;5071986;28;44662;-70
2023/08/10 01:27:26;;;;;;;15.33;10.77;;;21.60;76.10;;;;;;5085213;27;44092;-68
2023/08/10 01:29:55;;;;;;;13.07;10.93;;;21.60;76.20;;;;;;5063342;28;46058;-71
2023/08/10 01:32:23;;;;;;;14.37;10.23;;;21.50;76.20;;;;;;5065061;28;43420;-70
2023/08/10 01:34:52;;;;;;;13.73;10.47;;;21.50;76.70;;;;;;5066337;28;43537;-70
2023/08/10 01:37:20;;;;;;;14.93;11.00;;;21.50;76.50;;;;;;5066376;28;43593;-70
2023/08/10 01:39:48;;;;;;;14.40;10.33;;;21.70;76.20;;;;;;5069738;28;43882;-71
2023/08/10 01:42:17;;;;;;;14.30;10.50;;;21.90;75.80;;;;;;5057609;28;44438;-70
2023/08/10 01:44:45;;;;;;;13.60;10.30;;;22.00;75.10;;;;;;5064253;28;43367;-70
2023/08/10 01:47:27;;;;;;;14.03;10.63;;;22.10;74.80;;;;;;5075105;28;43585;-69
2023/08/10 01:49:57;;;;;;;16.00;10.47;;;22.00;74.80;;;;;;5065734;28;45719;-70
2023/08/10 01:52:28;;;;;;;12.40;10.57;;;22.00;75.10;;;;;;5067721;28;44764;-71
2023/08/10 01:54:56;;;;;;;16.10;11.17;;;21.90;75.50;;;;;;5062934;28;43438;-70
2023/08/10 01:57:28;;;;;;;15.10;10.83;;;21.80;75.60;;;;;;5057305;28;43593;-70
2023/08/10 01:59:56;;;;;;;15.13;10.63;;;21.80;75.80;;;;;;5068093;28;43623;-70
2023/08/10 02:02:24;;;;;;;14.27;10.53;;;21.70;75.90;;;;;;5065002;28;43879;-70
2023/08/10 02:04:52;;;;;;;13.67;10.60;;;21.60;76.00;;;;;;5060338;27;43501;-70
2023/08/10 02:07:21;;;;;;;12.87;10.77;;;21.60;76.50;;;;;;5057973;28;43473;-70
2023/08/10 02:09:49;;;;;;;14.00;10.33;;;21.60;76.30;;;;;;5063623;28;45680;-70
2023/08/10 02:12:17;;;;;;;12.33;10.07;;;21.70;76.00;;;;;;5055275;28;44832;-69
2023/08/10 02:14:46;;;;;;;14.97;10.83;;;21.70;76.00;;;;;;5060711;28;43457;-69
2023/08/10 02:17:15;;;;;;;12.87;10.43;;;21.70;76.00;;;;;;5050884;28;43550;-70
2023/08/10 02:19:43;;;;;;;11.93;10.37;;;21.60;76.20;;;;;;5063374;28;45772;-71
2023/08/10 02:22:11;;;;;;;12.17;10.30;;;21.60;76.20;;;;;;5061159;28;43336;-70
2023/08/10 02:24:39;;;;;;;13.30;10.80;;;21.60;76.20;;;;;;5054269;28;43465;-71
2023/08/10 02:27:07;;;;;;;10.57;9.40;;;21.60;76.20;;;;;;5064647;28;43468;-73
2023/08/10 02:29:35;;;;;;;13.17;10.03;;;21.50;76.30;;;;;;5065945;28;45680;-72
2023/08/10 02:32:05;;;;;;;13.50;10.57;;;21.50;76.80;;;;;;5065145;28;44754;-72
2023/08/10 02:34:33;;;;;;;14.87;10.63;;;21.50;76.60;;;;;;5056493;28;44019;-72
2023/08/10 02:37:03;;;;;;;12.90;9.67;;;21.60;76.30;;;;;;5062988;28;43508;-70
2023/08/10 02:39:31;;;;;;;12.83;9.97;;;21.70;76.20;;;;;;5066937;28;43944;-71
2023/08/10 02:41:59;;;;;;;14.37;10.50;;;21.70;76.20;;;;;;5060501;28;43449;-71
2023/08/10 02:44:27;;;;;;;11.43;9.90;;;21.60;76.20;;;;;;5067267;28;43410;-69
2023/08/10 02:46:55;;;;;;;13.67;10.07;;;21.60;76.30;;;;;;5058709;28;44558;-70
2023/08/10 02:49:25;;;;;;;11.23;9.90;;;21.60;76.30;;;;;;5061257;27;43981;-69
2023/08/10 02:51:53;;;;;;;13.10;10.23;;;21.60;76.40;;;;;;5063723;28;44393;-70
2023/08/10 02:54:21;;;;;;;12.43;10.13;;;21.50;76.30;;;;;;5071948;28;43979;-69
2023/08/10 02:56:50;;;;;;;12.20;10.43;;;21.50;76.90;;;;;;5062785;28;43940;-69
2023/08/10 02:59:18;;;;;;;11.57;10.20;;;21.50;76.90;;;;;;5065454;28;43686;-71
2023/08/10 03:01:46;;;;;;;13.40;10.40;;;21.60;76.60;;;;;;5068874;27;43507;-70
2023/08/10 03:04:14;;;;;;;12.37;10.63;;;21.60;76.20;;;;;;5068244;28;43999;-70
2023/08/10 03:06:44;;;;;;;12.80;9.43;;;21.60;76.20;;;;;;5073252;28;43587;-69
2023/08/10 03:09:13;;;;;;;13.87;10.70;;;21.60;76.20;;;;;;5058803;28;45726;-70
2023/08/10 03:11:41;;;;;;;12.43;10.00;;;21.60;76.60;;;;;;5066724;28;44685;-70
2023/08/10 03:14:09;;;;;;;12.90;10.10;;;21.50;76.40;;;;;;5064307;27;43568;-71
2023/08/10 03:16:37;;;;;;;11.90;9.60;;;21.50;76.40;;;;;;5068714;28;43466;-70
2023/08/10 03:19:05;;;;;;;11.47;9.93;;;21.50;76.60;;;;;;5064013;28;46033;-71
2023/08/10 03:21:33;;;;;;;11.07;9.77;;;21.50;76.60;;;;;;5059822;28;44693;-70
2023/08/10 03:24:03;;;;;;;11.90;9.67;;;21.50;77.00;;;;;;5071850;28;44110;-70
2023/08/10 03:26:31;;;;;;;10.57;9.57;;;21.40;76.90;;;;;;5067715;28;43433;-73
2023/08/10 03:29:00;;;;;;;10.67;9.60;;;21.40;77.00;;;;;;5070133;28;45871;-73
2023/08/10 03:31:29;;;;;;;11.53;9.43;;;21.40;76.80;;;;;;5067350;27;43577;-73
2023/08/10 03:33:57;;;;;;;10.93;9.50;;;21.30;77.30;;;;;;5065770;28;44578;-73
2023/08/10 03:36:26;;;;;;;10.87;9.57;;;21.30;77.30;;;;;;5064842;28;43491;-73
2023/08/10 03:38:54;;;;;;;10.23;9.17;;;21.30;77.20;;;;;;5066569;28;43701;-73
2023/08/10 03:41:23;;;;;;;10.63;9.53;;;21.30;77.20;;;;;;5064299;28;43429;-72
2023/08/10 03:43:51;;;;;;;10.90;9.67;;;21.30;77.10;;;;;;5058166;28;43944;-73
2023/08/10 03:46:19;;;;;;;10.77;9.43;;;21.30;77.60;;;;;;5068184;28;43530;-72
2023/08/10 03:48:47;;;;;;;10.37;9.30;;;21.40;77.40;;;;;;5060410;28;45724;-73
2023/08/10 03:51:15;;;;;;;11.43;9.87;;;21.50;76.90;;;;;;5064489;28;44725;-72
2023/08/10 03:53:43;;;;;;;9.90;8.90;;;21.60;77.00;;;;;;5068635;28;44084;-72
2023/08/10 03:56:11;;;;;;;9.83;8.93;;;21.80;75.90;;;;;;5063841;28;43956;-72
2023/08/10 03:58:41;;;;;;;11.33;9.80;;;21.80;75.80;;;;;;5060959;28;45877;-71
2023/08/10 04:01:09;;;;;;;10.67;9.57;;;21.80;75.90;;;;;;5064143;28;44860;-71
2023/08/10 04:03:37;;;;;;;10.00;9.07;;;21.70;76.00;;;;;;5069077;27;43428;-72
2023/08/10 04:06:05;;;;;;;9.73;8.77;;;21.60;76.30;;;;;;5068404;28;43490;-72
2023/08/10 04:08:33;;;;;;;10.20;8.80;;;21.60;76.50;;;;;;5064851;28;45392;-72
2023/08/10 04:11:01;;;;;;;9.27;8.37;;;21.50;76.50;;;;;;5075583;27;43913;-72
2023/08/10 04:13:30;;;;;;;9.53;8.50;;;21.50;76.60;;;;;;5062267;28;43573;-72
2023/08/10 04:15:59;;;;;;;9.77;8.90;;;21.50;76.60;;;;;;5069094;28;44968;-73
2023/08/10 04:18:28;;;;;;;9.37;8.50;;;21.40;77.10;;;;;;5065922;28;46421;-72
2023/08/10 04:20:56;;;;;;;10.03;9.03;;;21.40;77.00;;;;;;5069207;28;44125;-73
2023/08/10 04:23:25;;;;;;;10.07;9.03;;;21.50;76.70;;;;;;5068367;28;43488;-73
2023/08/10 04:25:53;;;;;;;10.77;9.17;;;21.60;76.50;;;;;;5067490;28;43431;-72
2023/08/10 04:28:21;;;;;;;10.00;9.00;;;21.60;76.40;;;;;;5074459;28;43981;-72
2023/08/10 04:30:49;;;;;;;9.97;8.90;;;21.50;76.40;;;;;;5066842;28;44806;-73
2023/08/10 04:33:19;;;;;;;9.67;8.70;;;21.50;76.70;;;;;;5068817;28;43372;-72
2023/08/10 04:35:47;;;;;;;9.13;8.23;;;21.50;76.60;;;;;;5072680;28;43444;-69
2023/08/10 04:38:15;;;;;;;9.50;8.50;;;21.50;76.60;;;;;;5078369;28;43869;-70
2023/08/10 04:40:43;;;;;;;9.57;8.57;;;21.50;76.60;;;;;;5065573;28;43439;-70
2023/08/10 04:43:11;;;;;;;10.17;9.07;;;21.40;76.80;;;;;;5065364;27;43469;-70
2023/08/10 04:45:39;;;;;;;9.60;8.47;;;21.40;77.10;;;;;;5061911;28;44047;-70
2023/08/10 04:48:09;;;;;;;9.37;8.47;;;21.40;77.10;;;;;;5069344;28;44916;-70
2023/08/10 04:50:38;;;;;;;8.60;7.80;;;21.40;77.00;;;;;;5067231;28;45072;-69
2023/08/10 04:53:06;;;;;;;9.50;8.57;;;21.40;77.00;;;;;;5065096;28;43327;-69
2023/08/10 04:55:34;;;;;;;9.00;8.20;;;21.30;77.20;;;;;;5066985;28;43404;-70
2023/08/10 04:58:02;;;;;;;9.30;8.30;;;21.30;77.30;;;;;;5070102;27;43704;-68
2023/08/10 05:00:30;;;;;;;9.50;8.30;;;21.40;77.00;;;;;;5066549;28;43957;-70
2023/08/10 05:02:58;;;;;;;9.10;8.20;;;21.50;76.60;;;;;;5074482;28;43370;-70
2023/08/10 05:05:26;;;;;;;8.80;8.00;;;21.70;76.10;;;;;;5066195;28;43486;-70
2023/08/10 05:07:55;;;;;;;8.93;8.03;;;21.80;75.90;;;;;;5065743;27;44782;-70
2023/08/10 05:10:23;;;;;;;8.60;7.80;;;21.70;75.80;;;;;;5065260;28;43434;-70
2023/08/10 05:12:51;;;;;;;8.10;7.40;;;21.70;75.90;;;;;;5071060;27;43427;-71
2023/08/10 05:15:22;;;;;;;9.40;8.43;;;21.60;76.00;;;;;;5072365;28;43579;-70
2023/08/10 05:17:50;;;;;;;8.23;7.47;;;21.50;76.50;;;;;;5073867;28;43707;-71
2023/08/10 05:20:18;;;;;;;8.10;7.40;;;21.50;76.60;;;;;;5066796;28;43507;-70
2023/08/10 05:22:46;;;;;;;8.97;8.07;;;21.50;76.70;;;;;;5061525;28;43418;-70
2023/08/10 05:25:16;;;;;;;8.73;8.07;;;21.50;76.70;;;;;;5067481;28;43403;-70
2023/08/10 05:27:46;;;;;;;8.90;8.10;;;21.40;76.60;;;;;;5067136;28;46343;-69
2023/08/10 05:30:14;;;;;;;8.90;8.20;;;21.40;77.20;;;;;;5084551;27;45050;-69
2023/08/10 05:32:43;;;;;;;8.23;7.53;;;21.40;77.10;;;;;;5061681;28;43924;-70
2023/08/10 05:35:13;;;;;;;8.27;7.57;;;21.40;77.10;;;;;;5069187;28;43957;-71
2023/08/10 05:37:41;;;;;;;8.03;7.33;;;21.40;77.00;;;;;;5070271;28;43958;-70
2023/08/10 05:40:11;;;;;;;8.33;7.53;;;21.30;77.00;;;;;;5071877;28;43391;-70
2023/08/10 05:42:41;;;;;;;8.30;7.60;;;21.30;77.50;;;;;;5063946;28;44041;-70
2023/08/10 05:45:14;;;;;;;8.23;7.53;;;21.40;77.20;;;;;;5079240;28;44035;-71
2023/08/10 05:47:43;;;;;;;8.20;7.50;;;21.50;76.80;;;;;;5066959;28;43855;-73
2023/08/10 05:50:11;;;;;;;7.80;7.20;;;21.60;76.20;;;;;;5080185;27;43423;-72
2023/08/10 05:52:39;;;;;;;8.10;7.30;;;21.80;75.80;;;;;;5074922;27;43356;-73
2023/08/10 05:55:08;;;;;;;8.07;7.37;;;21.80;75.70;;;;;;5070456;28;43362;-72
2023/08/10 05:57:36;;;;;;;8.17;7.47;;;21.70;75.70;;;;;;5073658;28;45397;-72
2023/08/10 06:00:07;;;;;;;7.90;7.20;;;21.70;76.70;;;;;;5072518;28;44652;-73
2023/08/10 06:02:41;;;;;;;8.37;7.67;;;21.60;76.40;;;;;;5071186;28;43581;-72
2023/08/10 06:05:09;;;;;;;7.70;7.00;;;21.50;76.50;;;;;;5081938;27;43470;-72
2023/08/10 06:07:37;;;;;;;8.40;7.70;;;21.50;76.60;;;;;;5066483;27;43623;-72
2023/08/10 06:10:06;;;;;;;7.40;6.80;;;21.50;76.60;;;;;;5070440;28;44355;-72
2023/08/10 06:12:34;;;;;;;7.83;7.13;;;21.40;76.50;;;;;;5071144;28;43549;-72
2023/08/10 06:15:04;;;;;;;7.17;6.60;;;21.40;77.20;;;;;;5072355;28;43930;-72
2023/08/10 06:17:33;;;;;;;7.60;7.00;;;21.40;77.10;;;;;;5071677;28;45694;-72
2023/08/10 06:20:09;;;;;;;8.13;7.43;;;21.40;77.10;;;;;;5067746;27;43781;-72
2023/08/10 06:22:38;;;;;;;7.57;6.97;;;21.40;76.90;;;;;;5084351;28;43351;-72
2023/08/10 06:25:07;;;;;;;7.80;7.17;;;21.30;76.90;;;;;;5084157;27;43389;-72
2023/08/10 06:27:35;;;;;;;7.90;7.20;;;21.30;77.60;;;;;;5083272;28;43599;-73
2023/08/10 06:30:04;;;;;;;7.40;6.80;;;21.30;77.20;;;;;;5087775;27;43867;-72
2023/08/10 06:32:33;;;;;;;7.30;6.70;;;21.40;76.70;;;;;;5068373;27;43469;-72
2023/08/10 06:35:02;;;;;;;7.57;6.93;;;21.60;76.20;;;;;;5077653;28;44061;-73
2023/08/10 06:37:30;;;;;;;7.27;6.77;;;21.70;75.80;;;;;;5080199;27;45727;-72
2023/08/10 06:39:58;;;;;;;8.10;7.40;;;21.80;75.70;;;;;;5079430;28;43862;-72
2023/08/10 06:42:26;;;;;;;7.67;7.07;;;21.70;75.70;;;;;;5081146;28;43453;-72
2023/08/10 06:45:01;;;;;;;7.37;6.77;;;21.60;75.70;;;;;;5080441;28;43985;-72
2023/08/10 06:47:29;;;;;;;7.30;6.80;;;21.50;76.20;;;;;;5072801;28;43627;-72
2023/08/10 06:49:58;;;;;;;7.13;6.63;;;21.50;76.40;;;;;;5074110;28;43448;-72
2023/08/10 06:52:26;;;;;;;7.03;6.47;;;21.50;76.60;;;;;;5068020;28;43452;-72
2023/08/10 06:54:54;;;;;;;6.90;6.40;;;21.40;76.40;;;;;;5078052;28;43413;-72
2023/08/10 06:57:22;;;;;;;6.80;6.30;;;21.40;76.50;;;;;;5075800;28;44585;-73
2023/08/10 06:59:50;;;;;;;7.10;6.50;;;21.30;77.70;;;;;;5069678;28;44404;-73
2023/08/10 07:02:22;;;;;;;7.27;6.67;;;21.30;77.00;;;;;;5072273;28;43564;-73
2023/08/10 07:04:50;;;;;;;6.40;5.90;;;21.30;77.00;;;;;;5077465;28;43426;-73
2023/08/10 07:07:19;;;;;;;6.50;6.00;;;21.30;76.90;;;;;;5073804;28;43994;-72
2023/08/10 07:09:47;;;;;;;6.60;6.10;;;21.30;77.00;;;;;;5071358;28;44408;-73
2023/08/10 07:12:15;;;;;;;6.77;6.27;;;21.30;77.50;;;;;;5072130;28;43462;-73
2023/08/10 07:14:43;;;;;;;7.80;7.10;;;21.30;77.20;;;;;;5082137;28;43644;-73
2023/08/10 07:17:12;;;;;;;7.20;6.60;;;21.40;76.90;;;;;;5065781;27;44804;-73
2023/08/10 07:19:40;;;;;;;6.70;6.20;;;21.60;76.30;;;;;;5069155;28;43415;-72
2023/08/10 07:22:08;;;;;;;6.40;6.00;;;21.70;75.90;;;;;;5076882;28;43814;-72
2023/08/10 07:24:37;;;;;;;6.53;6.03;;;21.70;75.80;;;;;;5060044;28;43368;-73
2023/08/10 07:27:06;;;;;;;6.37;5.97;;;21.70;75.90;;;;;;5074421;28;43670;-73
2023/08/10 07:29:36;;;;;;;6.23;5.83;;;21.60;75.90;;;;;;5064024;28;43805;-73
2023/08/10 07:32:06;;;;;;;6.17;5.77;;;21.50;76.50;;;;;;5059014;27;43442;-73
2023/08/10 07:34:34;;;;;;;6.30;5.90;;;21.50;77.20;;;;;;5076049;27;43410;-73
2023/08/10 07:37:02;;;;;;;6.30;5.80;;;21.50;76.60;;;;;;5067925;27;43605;-73
2023/08/10 07:39:30;;;;;;;6.57;6.17;;;21.40;76.50;;;;;;5067135;28;44263;-73
2023/08/10 07:41:59;;;;;;;6.73;6.23;;;21.40;76.60;;;;;;5067335;27;43515;-73
2023/08/10 07:44:27;;;;;;;5.77;5.37;;;21.30;77.00;;;;;;5061685;28;43874;-73
2023/08/10 07:46:58;;;;;;;6.13;5.77;;;21.30;77.10;;;;;;5069134;28;43840;-72
2023/08/10 07:49:27;;;;;;;5.77;5.47;;;21.30;77.00;;;;;;5063278;28;44303;-74
2023/08/10 07:51:55;;;;;;;6.10;5.70;;;21.30;76.90;;;;;;5081053;27;43456;-73
2023/08/10 07:54:23;;;;;;;5.47;5.17;;;21.20;77.20;;;;;;5078402;27;43458;-73
2023/08/10 07:56:51;;;;;;;6.30;5.80;;;21.20;77.40;;;;;;5081138;27;45741;-73
2023/08/10 07:59:20;;;;;;;6.20;5.80;;;21.30;77.10;;;;;;5071907;27;43398;-73
2023/08/10 08:01:49;;;;;;;5.33;5.07;;;21.50;76.80;;;;;;5068771;28;43518;-73
2023/08/10 08:04:17;;;;;;;5.20;4.90;;;21.60;76.10;;;;;;5065895;28;44156;-73
2023/08/10 08:06:45;;;;;;;5.87;5.47;;;21.70;75.80;;;;;;5068252;28;43681;-73
2023/08/10 08:09:13;;;;;;;5.30;5.00;;;21.70;75.70;;;;;;5064937;28;43465;-73
2023/08/10 08:11:41;;;;;;;5.73;5.43;;;21.60;75.70;;;;;;5070933;28;43843;-73
2023/08/10 08:14:09;;;;;;;5.63;5.23;;;21.60;76.20;;;;;;5061086;28;44239;-73
2023/08/10 08:16:39;;;;;;;5.47;4.97;;;21.50;75.00;;;;;;5067399;27;43611;-74
2023/08/10 08:19:07;;;;;;;4.57;4.37;;;21.50;74.70;;;;;;5065942;28;43544;-73
2023/08/10 08:21:35;;;;;;;4.40;4.13;;;21.40;74.70;;;;;;5071730;27;43477;-73
2023/08/10 08:24:03;;;;;;;4.20;3.90;;;21.30;75.40;;;;;;5080987;27;43451;-73
2023/08/10 08:26:32;;;;;;;3.63;3.53;;;21.30;75.50;;;;;;5076038;28;43607;-73
2023/08/10 08:29:00;;;;;;;4.47;4.27;;;21.20;74.10;;;;;;5072483;27;43599;-74
2023/08/10 08:31:28;;;;;;;3.97;3.67;;;21.20;74.60;;;;;;5076122;28;43392;-73
2023/08/10 08:33:58;;;;;;;3.57;3.47;;;21.20;74.70;;;;;;5064033;28;44090;-73
2023/08/10 08:36:26;;;;;;;3.70;3.40;;;21.20;75.00;;;;;;5066068;28;45701;-74
2023/08/10 08:38:54;;;;;;;3.37;3.17;;;21.10;74.80;;;;;;5071830;27;43426;-74
2023/08/10 08:41:26;;;;;;;4.97;3.20;;;21.10;73.50;;;;;;5075843;27;43360;-73
2023/08/10 08:43:55;;;;;;;4.23;3.93;;;21.20;73.20;;;;;;5073472;27;43470;-74
2023/08/10 08:46:26;;;;;;;3.70;3.50;;;21.20;72.70;;;;;;5071122;27;43559;-74
2023/08/10 08:48:54;;;;;;;3.60;3.40;;;21.30;73.10;;;;;;5068135;28;43943;-73
2023/08/10 08:51:25;;;;;;;4.10;3.80;;;21.30;73.40;;;;;;5071255;28;43988;-74
2023/08/10 08:53:53;;;;;;;4.10;3.80;;;21.30;73.80;;;;;;5072895;28;43513;-73
2023/08/10 08:56:21;;;;;;;4.43;3.60;;;21.30;74.00;;;;;;5072863;28;46819;-73
2023/08/10 08:58:49;;;;;;;3.53;3.33;;;21.30;74.00;;;;;;5066540;28;43530;-73
2023/08/10 09:01:17;;;;;;;3.10;3.00;;;21.30;74.20;;;;;;5067051;28;43863;-73
2023/08/10 09:03:46;;;;;;;3.47;3.27;;;21.30;74.40;;;;;;5075504;28;43345;-73
2023/08/10 09:06:14;;;;;;;4.00;3.80;;;21.30;74.80;;;;;;5079229;28;43595;-74
2023/08/10 09:08:43;;;;;;;3.63;3.43;;;21.20;74.70;;;;;;5082389;28;44779;-73
2023/08/10 09:11:11;;;;;;;3.80;3.50;;;21.20;74.80;;;;;;5065381;28;43465;-73
2023/08/10 09:13:39;;;;;;;4.00;3.70;;;21.20;74.90;;;;;;5063242;28;43982;-73
2023/08/10 09:16:08;;;;;;;4.27;3.87;;;21.20;74.90;;;;;;5064759;28;44131;-72
2023/08/10 09:18:37;;;;;;;6.63;4.17;;;21.20;75.30;;;;;;5047919;28;44468;-72
2023/08/10 09:21:13;;;;;;;6.53;4.70;;;21.20;75.10;;;;;;5067277;28;43468;-72
2023/08/10 09:23:43;;;;;;;5.07;4.67;;;21.30;74.70;;;;;;5069631;28;43476;-73
2023/08/10 09:26:12;;;;;;;5.70;4.13;;;21.40;74.50;;;;;;5067069;28;43570;-73
2023/08/10 09:28:40;;;;;;;6.40;4.40;;;21.40;74.50;;;;;;5067124;28;43434;-72
2023/08/10 09:31:10;;;;;;;8.20;4.37;;;21.40;74.60;;;;;;5065080;28;44451;-72
2023/08/10 09:33:42;;;;;;;6.47;4.90;;;21.40;74.70;;;;;;5066552;28;43495;-72
2023/08/10 09:36:10;;;;;;;7.07;4.87;;;21.40;74.80;;;;;;5069588;27;43606;-72
2023/08/10 09:38:41;;;;;;;5.73;4.37;;;21.40;74.80;;;;;;5069918;28;43962;-72
2023/08/10 09:41:10;;;;;;;4.70;4.27;;;21.30;74.80;;;;;;5070161;28;43457;-72
2023/08/10 09:43:39;;;;;;;6.27;4.60;;;21.30;75.00;;;;;;5070287;28;43421;-72
2023/08/10 09:46:09;;;;;;;5.00;3.97;;;21.20;75.10;;;;;;5067245;28;43845;-72
2023/08/10 09:48:37;;;;;;;5.07;4.57;;;21.30;75.30;;;;;;5068660;28;43398;-72
2023/08/10 09:51:06;;;;;;;6.20;4.27;;;21.30;75.20;;;;;;5067946;28;43424;-73
2023/08/10 09:53:34;;;;;;;4.83;4.40;;;21.20;75.20;;;;;;5067726;28;43495;-72
2023/08/10 09:56:02;;;;;;;6.10;4.53;;;21.20;75.50;;;;;;5067726;28;45729;-72
2023/08/10 09:58:31;;;;;;;4.40;4.00;;;21.20;75.60;;;;;;5066722;28;43450;-72
2023/08/10 10:00:59;;;;;;;6.73;4.30;;;21.30;75.20;;;;;;5068975;28;43565;-72
2023/08/10 10:03:29;;;;;;;5.83;4.27;;;21.40;74.80;;;;;;5068344;28;43572;-72
2023/08/10 10:05:58;;;;;;;4.77;3.83;;;21.50;74.30;;;;;;5064963;28;44899;-72
2023/08/10 10:08:27;;;;;;;4.83;4.17;;;21.60;74.00;;;;;;5069564;28;44046;-72
2023/08/10 10:10:57;;;;;;;4.03;3.63;;;21.60;74.00;;;;;;5069582;28;43517;-72
2023/08/10 10:13:25;;;;;;;3.90;3.57;;;21.60;74.20;;;;;;5067269;28;43502;-72
2023/08/10 10:15:55;;;;;;;4.50;4.07;;;21.50;74.30;;;;;;5067638;28;43872;-72
2023/08/10 10:18:23;;;;;;;4.53;4.13;;;21.40;74.80;;;;;;5068559;28;44824;-72
2023/08/10 10:20:51;;;;;;;4.70;4.10;;;21.40;74.80;;;;;;5067595;27;43481;-72
2023/08/10 10:23:20;;;;;;;3.77;3.47;;;21.40;74.80;;;;;;5068555;28;43400;-72
2023/08/10 10:25:58;;;;;;;3.67;3.47;;;21.40;74.90;;;;;;5064446;28;45661;-71
2023/08/10 10:28:30;;;;;;;4.53;3.80;;;21.30;75.00;;;;;;5065182;28;43571;-72
2023/08/10 10:31:07;;;;;;;5.30;3.70;;;21.30;75.30;;;;;;5069470;28;43493;-72
2023/08/10 10:33:35;;;;;;;3.50;3.20;;;21.30;75.30;;;;;;5069697;28;44013;-70
2023/08/10 10:36:09;;;;;;;3.83;3.53;;;21.30;75.30;;;;;;5057448;28;45830;-71
2023/08/10 10:38:54;;;;;;;4.53;4.13;;;21.30;75.30;;;;;;5067252;28;43477;-70
2023/08/10 10:41:29;;;;;;;4.13;3.83;;;21.20;75.60;;;;;;5068397;28;43550;-70
2023/08/10 10:43:58;;;;;;;3.57;3.37;;;21.30;75.50;;;;;;5067756;28;43553;-70
2023/08/10 10:46:37;;;;;;;3.83;3.60;;;21.40;75.40;;;;;;5066105;28;43611;-70
2023/08/10 10:49:12;;;;;;;4.33;3.43;;;21.50;74.70;;;;;;5068870;28;43397;-71
2023/08/10 10:51:53;;;;;;;6.37;3.70;;;21.60;74.30;;;;;;5066968;28;43539;-68
2023/08/10 10:54:22;;;;;;;10.77;4.13;;;21.60;74.20;;;;;;5065711;28;43585;-69
2023/08/10 10:56:50;;;;;;;6.13;3.63;;;21.60;74.50;;;;;;5067913;28;45899;-71
2023/08/10 10:59:19;;;;;;;4.73;4.00;;;21.60;74.60;;;;;;5065350;28;43408;-70
2023/08/10 11:01:49;;;;;;;4.80;3.57;;;21.50;75.00;;;;;;5066894;28;43556;-71
2023/08/10 11:04:17;;;;;;;6.43;3.67;;;21.50;75.10;;;;;;5069678;28;43456;-69
2023/08/10 11:06:45;;;;;;;5.93;3.57;;;21.50;75.00;;;;;;5061010;28;43875;-71
2023/08/10 11:09:14;;;;;;;3.70;3.40;;;21.40;75.10;;;;;;5065237;28;43479;-70
2023/08/10 11:11:48;;;;;;;4.43;3.97;;;21.40;75.30;;;;;;5066924;28;43555;-71
2023/08/10 11:14:16;;;;;;;6.27;4.03;;;21.40;75.70;;;;;;5064344;28;43521;-69
2023/08/10 11:16:44;;;;;;;5.87;3.87;;;21.40;75.60;;;;;;5064531;28;44040;-70
2023/08/10 11:19:14;;;;;;;3.93;3.63;;;21.30;75.30;;;;;;5069167;28;43577;-70
2023/08/10 11:21:45;;;;;;;5.53;3.50;;;21.30;75.30;;;;;;5064174;28;44003;-70
2023/08/10 11:24:13;;;;;;;3.77;3.43;;;21.30;75.30;;;;;;5065558;28;43492;-70
2023/08/10 11:26:42;;;;;;;4.87;3.27;;;21.30;75.80;;;;;;5064619;28;44111;-71
2023/08/10 11:29:10;;;;;;;5.50;3.50;;;21.40;75.80;;;;;;5066379;28;44988;-70
2023/08/10 11:31:39;;;;;;;4.50;3.60;;;21.40;75.40;;;;;;5064595;28;43470;-70
2023/08/10 11:34:20;;;;;;;7.70;3.80;;;21.50;74.70;;;;;;5069310;28;44019;-70
2023/08/10 11:36:48;;;;;;;3.73;3.43;;;21.60;74.10;;;;;;5070348;27;43598;-69
2023/08/10 11:39:16;;;;;;;3.97;3.20;;;21.70;74.10;;;;;;5070390;28;45135;-72
2023/08/10 11:41:45;;;;;;;6.60;3.33;;;21.60;74.10;;;;;;5070591;28;43360;-71
2023/08/10 11:44:25;;;;;;;4.73;3.53;;;21.60;74.20;;;;;;5071087;28;43858;-71
2023/08/10 11:46:56;;;;;;;9.93;3.70;;;21.50;74.50;;;;;;5066425;28;45941;-72
2023/08/10 11:49:30;;;;;;;8.40;3.40;;;21.50;74.70;;;;;;5068367;28;43935;-71
2023/08/10 11:52:00;;;;;;;9.77;3.57;;;21.50;74.70;;;;;;5068557;28;43792;-71
2023/08/10 11:54:29;;;;;;;5.57;3.73;;;21.40;74.60;;;;;;5067048;28;43478;-70
2023/08/10 11:56:57;;;;;;;5.97;3.50;;;21.40;74.70;;;;;;5069232;28;44011;-70
2023/08/10 11:59:25;;;;;;;10.40;3.70;;;21.40;75.20;;;;;;5064669;28;43511;-70
2023/08/10 12:01:56;;;;;;;15.13;3.57;;;21.40;75.20;;;;;;5065130;28;43497;-71
2023/08/10 12:04:29;;;;;;;5.73;3.43;;;21.40;75.10;;;;;;5066474;28;43454;-71
2023/08/10 12:06:57;;;;;;;12.30;3.60;;;21.40;75.10;;;;;;5066908;28;43759;-70
2023/08/10 12:09:28;;;;;;;10.23;3.40;;;21.30;75.00;;;;;;5066104;28;43517;-70
2023/08/10 12:11:56;;;;;;;6.37;3.63;;;21.30;75.40;;;;;;5068598;28;43980;-70
2023/08/10 12:14:24;;;;;;;5.17;3.20;;;21.30;75.30;;;;;;5064551;28;43684;-71
2023/08/10 12:16:52;;;;;;;4.23;3.17;;;21.30;75.20;;;;;;5068206;28;45798;-70
2023/08/10 12:19:20;;;;;;;5.87;3.60;;;21.30;75.10;;;;;;5071761;28;44706;-69
2023/08/10 12:21:50;;;;;;;7.50;3.67;;;21.30;75.20;;;;;;5072784;27;43644;-70
2023/08/10 12:24:18;;;;;;;64.33;6.20;;;21.30;75.60;;;;;;5073404;28;43487;-70
2023/08/10 12:26:47;;;;;;;70.67;6.93;;;21.40;75.60;;;;;;5070642;28;43595;-70
2023/08/10 12:29:17;;;;;;;72.90;8.03;;;21.50;75.10;;;;;;5067526;28;43424;-70
2023/08/10 12:31:45;;;;;;;68.57;7.00;;;21.60;74.30;;;;;;5068509;28;43374;-70
2023/08/10 12:34:13;;;;;;;58.77;6.60;;;21.70;73.80;;;;;;5071141;28;44098;-71
2023/08/10 12:36:41;;;;;;;53.27;6.20;;;21.70;73.80;;;;;;5068468;28;46765;-70
2023/08/10 12:39:10;;;;;;;44.10;6.70;;;21.70;73.90;;;;;;5065853;28;45267;-71
2023/08/10 12:41:38;;;;;;;46.03;6.43;;;21.70;74.10;;;;;;5066997;28;43597;-70
2023/08/10 12:44:07;;;;;;;35.10;6.93;;;21.60;74.50;;;;;;5070691;28;43638;-70
2023/08/10 12:46:35;;;;;;;43.47;6.07;;;21.50;74.70;;;;;;5073343;28;45990;-72
2023/08/10 12:49:03;;;;;;;40.50;6.37;;;21.50;74.70;;;;;;5079150;28;43462;-73